Data for 01/21/2014

Time Sea-Level Adjusted Pressure Absolute Pressure Temperature Relative Humidity Dew Point   
(mb) (inHg) (mb) (inHg) (C) (F) (%) (C) (F)
00:05 1027 30.33 856 25.28 -3.3 26 46 -13.4 7.9
00:10 1027 30.33 856 25.28 -3.4 25.9 48 -12.8 9
00:15 1027 30.33 856 25.28 -3.5 25.8 48 -13 8.7
00:20 1027 30.33 856 25.28 -3.6 25.6 50 -12.7 9.2
00:25 1027 30.33 856 25.28 -2.9 26.7 45 -13.3 8.1
00:30 1027 30.33 856 25.28 -2.5 27.4 46 -12.8 9
00:35 1027 30.33 856 25.28 -2.7 27.2 47 -12.5 9.5
00:40 1027 30.33 857 25.31 -2.9 26.8 47 -12.7 9.2
00:45 1027 30.33 856 25.28 -2.3 27.8 48 -11.9 10.6
00:50 1027 30.33 857 25.31 -2.5 27.5 52 -10.9 12.3
00:55 1027 30.33 857 25.31 -2 28.4 50 -11.1 12
01:00 1027 30.33 856 25.28 -2.2 28 47 -12 10.4
01:05 1027 30.33 856 25.28 -2.7 27.1 49 -12 10.4
01:10 1027 30.33 856 25.28 -3.2 26.2 50 -12.2 10.1
01:15 1027 30.33 856 25.28 -3.4 25.9 53 -11.7 10.9
01:20 1027 30.33 856 25.28 -3.1 26.4 48 -12.7 9.2
01:25 1027 30.33 856 25.28 -3.3 26.1 51 -12 10.3
01:30 1027 30.33 856 25.28 -3.3 26.1 50 -12.2 10
01:35 1027 30.33 856 25.28 -3.2 26.3 47 -13.1 8.5
01:40 1027 30.33 856 25.28 -3.3 26 49 -12.6 9.2
01:45 1027 30.33 856 25.28 -3.3 26.1 47 -13.2 8.3
01:50 1027 30.33 856 25.28 -3.2 26.2 48 -12.7 9.2
01:55 1027 30.33 856 25.28 -2.8 26.9 46 -12.9 8.8
02:00 1027 30.33 856 25.28 -2.5 27.4 47 -12.4 9.7
02:05 1027 30.33 856 25.28 -2.5 27.4 44 -13.1 8.3
02:10 1027 30.33 856 25.28 -2.6 27.3 46 -12.7 9.1
02:15 1027 30.33 856 25.28 -2.7 27.2 47 -12.6 9.3
02:20 1027 30.33 856 25.28 -2.8 26.9 43 -13.7 7.3
02:25 1027 30.33 856 25.28 -2.5 27.6 42 -13.6 7.5
02:30 1027 30.33 856 25.28 -2.6 27.3 44 -13.4 7.9
02:35 1027 30.33 856 25.28 -2.9 26.7 44 -13.5 7.7
02:40 1027 30.33 856 25.28 -2.9 26.8 44 -13.4 7.8
02:45 1027 30.33 856 25.28 -2.8 26.9 45 -13.2 8.2
02:50 1027 30.33 856 25.28 -3 26.5 46 -13 8.5
02:55 1027 30.33 856 25.28 -3.2 26.3 45 -13.4 7.8
03:00 1027 30.33 856 25.28 -3.2 26.3 44 -13.7 7.3
03:05 1027 30.33 856 25.28 -3.4 25.9 47 -13.1 8.3
03:10 1027 30.33 856 25.28 -3.8 25.2 49 -13 8.5
03:15 1027 30.33 856 25.28 -3.9 24.9 50 -13 8.6
03:20 1027 30.33 856 25.28 -3.9 24.9 50 -12.9 8.7
03:25 1027 30.33 856 25.28 -3.3 26.1 47 -13.1 8.4
03:30 1027 30.33 856 25.28 -2.8 27 49 -12 10.4
03:35 1027 30.33 856 25.28 -2.8 26.9 46 -13 8.6
03:40 1027 30.33 856 25.28 -2.1 28.1 45 -12.5 9.5
03:45 1027 30.33 856 25.28 -2.9 26.7 49 -12.1 10.2
03:50 1027 30.33 856 25.28 -3 26.6 48 -12.6 9.3
03:55 1027 30.33 856 25.28 -3.3 26.1 53 -11.4 11.4
04:00 1027 30.33 856 25.28 -3.1 26.5 49 -12.4 9.6
04:05 1027 30.33 856 25.28 -3.1 26.4 49 -12.5 9.5
04:10 1027 30.33 856 25.28 -3 26.5 48 -12.6 9.4
04:15 1027 30.33 856 25.28 -2.7 27.1 44 -13.3 8.1
04:20 1027 30.33 856 25.28 -2.9 26.8 46 -12.9 8.7
04:25 1027 30.33 856 25.28 -3 26.6 47 -12.9 8.7
04:30 1027 30.33 856 25.28 -3.3 26.1 50 -12.2 10
04:35 1027 30.33 856 25.28 -3.1 26.5 46 -13.2 8.3
04:40 1027 30.33 856 25.28 -3.5 25.8 47 -13.3 8.1
04:45 1027 30.33 856 25.28 -4 24.7 47 -13.9 7
04:50 1027 30.33 856 25.28 -3.8 25.1 45 -14 6.7
04:55 1027 30.33 856 25.28 -3.7 25.4 46 -13.7 7.3
05:00 1027 30.33 856 25.28 -4.2 24.4 51 -12.8 8.9
05:05 1027 30.33 856 25.28 -3.7 25.3 48 -13.3 8
05:10 1027 30.33 856 25.28 -3.6 25.6 48 -13.1 8.3
05:15 1027 30.33 856 25.28 -4.1 24.6 51 -12.8 9
05:20 1027 30.33 856 25.28 -4.2 24.4 53 -12.5 9.6
05:25 1027 30.33 856 25.28 -4.3 24.3 53 -12.4 9.7
05:30 1027 30.33 856 25.28 -4 24.7 52 -12.4 9.7
05:35 1027 30.33 856 25.28 -3.5 25.7 51 -12.3 9.8
05:40 1027 30.33 856 25.28 -3.6 25.4 52 -12.3 9.9
05:45 1027 30.33 856 25.28 -3.5 25.8 51 -12.3 9.9
05:50 1027 30.33 856 25.28 -4 24.9 51 -12.6 9.4
05:55 1026 30.3 856 25.28 -4.3 24.2 52 -12.8 8.9
06:00 1026 30.3 856 25.28 -4.2 24.5 52 -12.7 9.2
06:05 1026 30.3 856 25.28 -3.8 25.2 50 -12.8 9
06:10 1026 30.3 855 25.25 -3.7 25.4 50 -12.7 9.1
06:15 1026 30.3 855 25.25 -3.5 25.7 48 -12.9 8.8
06:20 1026 30.3 855 25.25 -3.7 25.3 51 -12.5 9.5
06:25 1026 30.3 855 25.25 -3.8 25.1 48 -13.2 8.2
06:30 1026 30.3 855 25.25 -3.5 25.6 48 -13 8.7
06:35 1026 30.3 855 25.25 -3 26.6 44 -13.6 7.6
06:40 1026 30.3 855 25.25 -2.1 28.2 42 -13.3 8.1
06:45 1026 30.3 855 25.25 -2.3 27.9 44 -13 8.7
06:50 1026 30.3 855 25.25 -2.7 27.2 45 -13 8.6
06:55 1026 30.3 855 25.25 -3.1 26.4 47 -12.9 8.7
07:00 1026 30.3 855 25.25 -3.3 26 48 -13 8.7
07:05 1026 30.3 855 25.25 -3.4 26 48 -12.8 9
07:10 1026 30.3 855 25.25 -3.6 25.6 49 -12.7 9.2
07:15 1026 30.3 855 25.25 -4.4 24.2 53 -12.6 9.3
07:20 1026 30.3 855 25.25 -4.7 23.5 53 -12.8 8.9
07:25 1026 30.3 855 25.25 -4.6 23.6 51 -13.3 8
07:30 1026 30.3 855 25.25 -4.5 24 49 -13.5 7.7
07:35 1026 30.3 856 25.28 -3.8 25.1 46 -13.9 7.1
07:40 1026 30.3 856 25.28 -3.4 25.9 47 -13.2 8.3
07:45 1026 30.3 856 25.28 -3.4 25.8 46 -13.5 7.7
07:50 1026 30.3 856 25.28 -3.4 25.9 44 -14.1 6.6
07:55 1026 30.3 856 25.28 -2.7 27.1 43 -13.6 7.5
08:00 1026 30.3 856 25.28 -2.6 27.3 41 -14 6.8
08:05 1026 30.3 856 25.28 -2.4 27.6 42 -13.7 7.3
08:10 1027 30.33 856 25.28 -2.8 27 44 -13.5 7.7
08:15 1027 30.33 856 25.28 -2.8 27 44 -13.4 7.9
08:20 1026 30.3 856 25.28 -2.9 26.8 46 -13.1 8.5
08:25 1026 30.3 856 25.28 -2.6 27.3 43 -13.5 7.7
08:30 1027 30.33 856 25.28 -2.4 27.7 45 -12.9 8.8
08:35 1027 30.33 856 25.28 -2.5 27.5 45 -12.8 9
08:40 1026 30.3 856 25.28 -2.5 27.5 46 -12.7 9.2
08:45 1026 30.3 856 25.28 -2.6 27.4 45 -13.1 8.5
08:50 1026 30.3 856 25.28 -2.6 27.3 47 -12.6 9.4
08:55 1026 30.3 856 25.28 -3.5 25.7 48 -12.9 8.8
09:00 1026 30.3 856 25.28 -4 24.8 50 -13.1 8.4
09:05 1027 30.33 856 25.28 -4 24.8 49 -13.2 8.3
09:10 1027 30.33 856 25.28 -3.7 25.4 48 -13.2 8.2
09:15 1027 30.33 856 25.28 -3.8 25.2 49 -12.9 8.7
09:20 1027 30.33 856 25.28 -3.7 25.3 49 -13 8.6
09:25 1027 30.33 856 25.28 -2.9 26.8 46 -13.1 8.5
09:30 1027 30.33 856 25.28 -2.3 27.8 45 -12.7 9.1
09:35 1027 30.33 856 25.28 -2.3 27.8 44 -13 8.6
09:40 1027 30.33 856 25.28 -2.8 27 46 -13 8.7
09:45 1027 30.33 856 25.28 -2.8 27 45 -13.2 8.2
09:50 1027 30.33 856 25.28 -2.2 28.1 44 -12.8 9
09:55 1027 30.33 856 25.28 -1.8 28.7 44 -12.6 9.3
10:00 1027 30.33 856 25.28 -1.5 29.4 42 -12.7 9.2
10:05 1027 30.33 856 25.28 -0.7 30.7 41 -12.5 9.4
10:10 1027 30.33 856 25.28 -0.4 31.2 40 -12.4 9.7
10:15 1027 30.33 856 25.28 -0.4 31.4 40 -12.5 9.6
10:20 1027 30.33 856 25.28 -0.9 30.3 41 -12.6 9.3
10:25 1027 30.33 856 25.28 -1 30.1 40 -12.9 8.8
10:30 1026 30.3 856 25.28 -1 30.2 41 -12.5 9.5
10:35 1026 30.3 856 25.28 -1.1 30 43 -12.3 9.9
10:40 1026 30.3 856 25.28 -0.8 30.6 41 -12.4 9.7
10:45 1026 30.3 856 25.28 -0.3 31.5 39 -12.5 9.4
10:50 1026 30.3 856 25.28 0.1 32.2 39 -12.4 9.7
10:55 1026 30.3 856 25.28 0.3 32.6 39 -12.2 10.1
11:00 1026 30.3 856 25.28 0.3 32.5 39 -12.2 10
11:05 1026 30.3 856 25.28 0.3 32.6 39 -12.1 10.3
11:10 1026 30.3 856 25.28 0.6 33.1 39 -12 10.5
11:15 1026 30.3 856 25.28 0.6 33.2 38 -12 10.4
11:20 1026 30.3 856 25.28 1.3 34.4 36 -12.1 10.2
11:25 1026 30.3 856 25.28 1.5 34.7 37 -11.9 10.6
11:30 1026 30.3 855 25.25 1.8 35.2 34 -12.5 9.5
11:35 1026 30.3 855 25.25 2.2 36 33 -12.3 9.8
11:40 1026 30.3 855 25.25 2.9 37.3 32 -12.2 10
11:45 1026 30.3 855 25.25 3.7 38.6 31 -11.9 10.6
11:50 1026 30.3 855 25.25 4.2 39.6 30 -12.1 10.2
11:55 1026 30.3 855 25.25 4.5 40.1 31 -11.4 11.5
12:00 1026 30.3 855 25.25 4.5 40 30 -11.5 11.3
12:05 1026 30.3 855 25.25 4.6 40.3 30 -11.4 11.6
12:10 1026 30.3 855 25.25 5 40.9 32 -10.5 13.1
12:15 1026 30.3 855 25.25 5 41 30 -11 12.2
12:20 1026 30.3 855 25.25 5.2 41.4 29 -11.6 11.1
12:25 1026 30.3 855 25.25 5.1 41.2 31 -10.5 13
12:30 1026 30.3 855 25.25 4.8 40.6 31 -11.1 12
12:35 1026 30.3 855 25.25 4.8 40.6 31 -10.8 12.5
12:40 1026 30.3 855 25.25 4.6 40.4 32 -10.9 12.4
12:45 1026 30.3 855 25.25 4.7 40.4 34 -10.1 13.9
12:50 1026 30.3 855 25.25 4.4 39.9 35 -9.8 14.4
12:55 1025 30.27 855 25.25 4.3 39.7 35 -10.1 13.9
13:00 1025 30.27 855 25.25 4.5 40.1 35 -9.7 14.5
13:05 1025 30.27 855 25.25 4.2 39.6 37 -9.4 15.1
13:10 1025 30.27 855 25.25 4.4 39.8 37 -9.1 15.6
13:15 1025 30.27 854 25.22 4.9 40.8 33 -9.9 14.2
13:20 1025 30.27 854 25.22 5.4 41.7 33 -9.5 14.9
13:25 1025 30.27 854 25.22 5.8 42.4 33 -9.4 15.1
13:30 1025 30.27 854 25.22 5.6 42.1 32 -9.9 14.1
13:35 1025 30.27 854 25.22 5.9 42.7 32 -9.5 14.8
13:40 1025 30.27 854 25.22 5.9 42.6 32 -9.4 15
13:45 1025 30.27 854 25.22 5.5 42 35 -8.8 16.1
13:50 1025 30.27 854 25.22 5.7 42.2 36 -8.1 17.4
13:55 1025 30.27 854 25.22 5.6 42.1 37 -8 17.6
14:00 1025 30.27 854 25.22 5.5 41.9 37 -8 17.7
14:05 1025 30.27 854 25.22 5.6 42.1 37 -7.8 17.9
14:10 1025 30.27 854 25.22 5.5 41.8 37 -8.2 17.3
14:15 1025 30.27 854 25.22 5.7 42.3 38 -7.5 18.5
14:20 1025 30.27 854 25.22 5.5 41.9 38 -7.6 18.3
14:25 1025 30.27 854 25.22 5.7 42.3 36 -8.2 17.3
14:30 1025 30.27 854 25.22 5.1 41.1 37 -8.5 16.6
14:35 1025 30.27 854 25.22 5.4 41.8 36 -8.7 16.4
14:40 1025 30.27 854 25.22 5.5 41.9 37 -8 17.5
14:45 1025 30.27 854 25.22 5.6 42 37 -7.9 17.8
14:50 1024 30.24 854 25.22 5.8 42.4 37 -7.8 18
14:55 1024 30.24 854 25.22 5.7 42.3 34 -9 15.9
15:00 1024 30.24 854 25.22 6.1 43 33 -9 15.8
15:05 1024 30.24 853 25.19 6.2 43.2 32 -9.2 15.4
15:10 1024 30.24 853 25.19 6 42.9 30 -10.3 13.5
15:15 1024 30.24 853 25.19 6.4 43.5 26 -11.6 11.2
15:20 1024 30.24 853 25.19 6.6 43.9 27 -11.2 11.9
15:25 1024 30.24 853 25.19 6.8 44.3 26 -11.4 11.5
15:30 1024 30.24 853 25.19 7 44.5 27 -10.9 12.4
15:35 1024 30.24 853 25.19 7.3 45.1 26 -11 12.2
15:40 1024 30.24 853 25.19 8 46.4 25 -10.8 12.6
15:45 1024 30.24 853 25.19 7.9 46.2 25 -10.9 12.4
15:50 1024 30.24 853 25.19 8.1 46.7 25 -10.6 12.9
15:55 1024 30.24 853 25.19 8.2 46.7 25 -10.6 12.9
16:00 1024 30.24 853 25.19 8.4 47.2 25 -10.6 12.8
16:05 1024 30.24 853 25.19 8.6 47.4 25 -10.4 13.3
16:10 1024 30.24 853 25.19 8.6 47.4 25 -10.4 13.3
16:15 1024 30.24 853 25.19 8.5 47.2 25 -10.4 13.4
16:20 1024 30.24 853 25.19 8.4 47.2 25 -10.5 13
16:25 1024 30.24 853 25.19 8.4 47.1 25 -10.6 12.9
16:30 1024 30.24 853 25.19 8.4 47.1 26 -10.1 13.8
16:35 1024 30.24 853 25.19 8.2 46.8 27 -9.8 14.4
16:40 1024 30.24 853 25.19 7.5 45.5 29 -9.4 15.1
16:45 1024 30.24 853 25.19 7.6 45.6 29 -9.4 15
16:50 1024 30.24 853 25.19 7.9 46.2 28 -9.3 15.3
16:55 1024 30.24 853 25.19 7.4 45.3 30 -9.1 15.6
17:00 1024 30.24 853 25.19 6.6 43.9 30 -9.6 14.7
17:05 1024 30.24 853 25.19 6.6 43.9 29 -10.1 13.9
17:10 1024 30.24 853 25.19 6.8 44.3 29 -9.8 14.3
17:15 1024 30.24 853 25.19 6.9 44.3 29 -9.9 14.1
17:20 1024 30.24 853 25.19 6.9 44.4 29 -9.8 14.3
17:25 1024 30.24 853 25.19 7 44.6 29 -10 14.1
17:30 1024 30.24 853 25.19 7 44.6 29 -10 14
17:35 1024 30.24 853 25.19 6.6 43.9 31 -9.5 14.9
17:40 1024 30.24 853 25.19 6.3 43.3 32 -9.2 15.5
17:45 1024 30.24 853 25.19 6.4 43.5 32 -9.1 15.6
17:50 1024 30.24 853 25.19 6.5 43.7 32 -9 15.9
17:55 1024 30.24 853 25.19 6.3 43.3 32 -9.4 15.1
18:00 1024 30.24 853 25.19 5.3 41.6 31 -10.3 13.4
18:05 1024 30.24 853 25.19 5.3 41.5 32 -10.1 13.9
18:10 1024 30.24 853 25.19 4.6 40.3 36 -9.2 15.4
18:15 1024 30.24 853 25.19 4.3 39.7 39 -8.6 16.5
18:20 1024 30.24 853 25.19 3.9 39 39 -8.8 16.2
18:25 1024 30.24 853 25.19 3.9 39.1 39 -8.9 16
18:30 1024 30.24 853 25.19 3.6 38.4 41 -8.5 16.7
18:35 1024 30.24 853 25.19 2.8 37.1 45 -8.1 17.4
18:40 1024 30.24 853 25.19 2.3 36.1 43 -9.1 15.7
18:45 1024 30.24 853 25.19 2 35.6 42 -9.5 15
18:50 1024 30.24 853 25.19 1.9 35.4 45 -8.8 16.2
18:55 1024 30.24 853 25.19 2 35.6 43 -9.4 15.1
19:00 1024 30.24 853 25.19 2.6 36.6 42 -9.2 15.4
19:05 1024 30.24 853 25.19 2.7 36.9 41 -9.4 15.2
19:10 1024 30.24 853 25.19 2.6 36.7 42 -9 15.8
19:15 1024 30.24 853 25.19 2.7 36.8 41 -9.4 15.2
19:20 1024 30.24 853 25.19 2.7 36.8 40 -9.6 14.8
19:25 1024 30.24 853 25.19 2.5 36.5 42 -9.2 15.4
19:30 1024 30.24 853 25.19 2.5 36.5 39 -10 14
19:35 1024 30.24 853 25.19 2.8 37 40 -9.6 14.7
19:40 1024 30.24 853 25.19 2.8 37 42 -8.8 16.1
19:45 1024 30.24 853 25.19 2.6 36.8 43 -8.8 16.2
19:50 1024 30.24 853 25.19 2.1 35.8 47 -8.1 17.4
19:55 1024 30.24 853 25.19 0.7 33.2 47 -9.3 15.3
20:00 1024 30.24 853 25.19 1.3 34.3 43 -9.9 14.1
20:05 1024 30.24 853 25.19 1.9 35.5 42 -9.8 14.4
20:10 1024 30.24 853 25.19 2.3 36.1 42 -9.3 15.3
20:15 1024 30.24 853 25.19 1.9 35.4 44 -9.2 15.5
20:20 1024 30.24 853 25.19 1.5 34.8 44 -9.5 15
20:25 1023 30.21 853 25.19 1.7 35 47 -8.5 16.8
20:30 1023 30.21 853 25.19 1.1 34 49 -8.5 16.7
20:35 1023 30.21 853 25.19 0.8 33.5 50 -8.5 16.7
20:40 1023 30.21 853 25.19 0.3 32.5 51 -8.7 16.3
20:45 1023 30.21 853 25.19 0.5 32.9 49 -9 15.8
20:50 1023 30.21 853 25.19 0.7 33.3 50 -8.6 16.4
20:55 1023 30.21 853 25.19 0.7 33.3 49 -8.8 16.1
21:00 1023 30.21 853 25.19 0.8 33.4 50 -8.5 16.7
21:05 1023 30.21 853 25.19 0.3 32.5 51 -8.7 16.3
21:10 1023 30.21 853 25.19 0.7 33.2 48 -9.2 15.4
21:15 1023 30.21 853 25.19 1.1 33.9 47 -9 15.8
21:20 1023 30.21 852 25.16 1.3 34.3 46 -9.1 15.7
21:25 1023 30.21 853 25.19 1.3 34.3 47 -8.8 16.2
21:30 1023 30.21 852 25.16 1 33.9 48 -8.7 16.3
21:35 1023 30.21 852 25.16 0.7 33.2 49 -8.8 16.2
21:40 1023 30.21 852 25.16 0.5 32.8 50 -8.7 16.4
21:45 1023 30.21 852 25.16 0.3 32.5 51 -8.7 16.3
21:50 1023 30.21 852 25.16 0.3 32.5 50 -8.8 16.1
21:55 1023 30.21 852 25.16 0.4 32.8 50 -8.9 16.1
22:00 1023 30.21 852 25.16 0.5 32.9 50 -8.8 16.2
22:05 1023 30.21 852 25.16 0.7 33.3 48 -9 15.9
22:10 1023 30.21 852 25.16 0.7 33.3 50 -8.5 16.6
22:15 1023 30.21 852 25.16 0.4 32.8 54 -7.8 18
22:20 1023 30.21 852 25.16 0.5 32.9 53 -8.1 17.5
22:25 1023 30.21 852 25.16 0.2 32.3 54 -8.1 17.4
22:30 1023 30.21 852 25.16 -0.3 31.4 55 -8.3 17.1
22:35 1023 30.21 852 25.16 -0.6 31 56 -8.3 17
22:40 1023 30.21 853 25.19 -0.8 30.6 55 -8.7 16.3
22:45 1023 30.21 852 25.16 -0.2 31.6 53 -8.8 16.2
22:50 1023 30.21 852 25.16 0 32 51 -8.9 15.9
22:55 1023 30.21 852 25.16 0.1 32.2 50 -9 15.7
23:00 1023 30.21 852 25.16 0 32 51 -8.9 16.1
23:05 1023 30.21 853 25.19 -0.3 31.5 53 -8.8 16.1
23:10 1023 30.21 853 25.19 -0.3 31.5 51 -9.2 15.4
23:15 1023 30.21 853 25.19 -0.1 31.7 50 -9.3 15.3
23:20 1023 30.21 853 25.19 -0.1 31.8 51 -9.2 15.5
23:25 1023 30.21 853 25.19 -0.1 31.8 50 -9.2 15.4
23:30 1023 30.21 853 25.19 -0.1 31.8 52 -8.8 16.2
23:35 1023 30.21 853 25.19 -0.6 31 57 -8.1 17.3
23:40 1023 30.21 853 25.19 -0.7 30.7 56 -8.4 16.8
23:45 1024 30.24 853 25.19 -1.2 29.8 59 -8.2 17.2
23:50 1024 30.24 853 25.19 -2.1 28.3 62 -8.4 16.9
23:55 1024 30.24 853 25.19 -1.7 28.9 58 -8.9 16
24:00 1024 30.24 853 25.19 -1.1 30 55 -9 15.8